Terminal Aerodrome Forecast
Issued by NWS Bismarck, ND

Home | Current Version | Previous Version | Text Only | Print | Product List | Glossary Off
Versions: 1 2 3 4 5 6 7 8 9 10 11 12 13 14 15 16 17 18 19 20 21 22

455
FTUS43 KBIS 211837 AAA
TAFISN
TAF AMD
KISN 211837Z 2119/2218 28006KT P6SM FEW020
     FM220000 VRB03KT P6SM FEW250
     FM220900 16005KT P6SM OVC080
     FM221400 22006KT P6SM BKN100
     FM221600 26008KT P6SM BKN250=

USA.gov is the U.S. government's official web portal to all federal, state and local government web resources and services.